Nina — ICMG — position and weather

sailwx.info

Track history (hours):
 
Tides and Currents Weather Stations Pressure Air Temp Water Temp Dewpoint Dewpoint Depression Visibility Wind Speed Wind Dir Waves Ship Positions

Nina

Last reported at 2015-Jul-30 05:33 UTC. Time now 2015-Jul-30 18:15 UTC.
Position N 36°48' E 000°01'.

Length 180 m; draft 9.9 m.

Type: Tanker. MMSI: 247239700.

Date/timePositionNaut miles runAvg speedWind from/ knotsBaromVisibWave heightAir tempDewpointWater temp
2015-Jul-30 05:33N 36°48' E 000°01'1312.5
2015-Jul-30 04:31N 36°50' E 000°17'1212.6
2015-Jul-30 03:33N 36°53' E 000°32'1212.0
2015-Jul-30 02:33N 36°56' E 000°46'1212.0
2015-Jul-30 01:31N 36°58' E 001°02'1111.6
2015-Jul-30 00:33N 37°01' E 001°15'1312.9
2015-Jul-29 23:33N 37°02' E 001°31'1812.8
2015-Jul-29 22:07N 37°05' E 001°54'713.2
2015-Jul-29 21:33N 37°07' E 002°03'1312.9
2015-Jul-29 20:33N 37°09' E 002°19'1312.9
2015-Jul-29 19:33N 37°12' E 002°35'1313.0
2015-Jul-29 18:33N 37°15' E 002°51'1312.6
2015-Jul-29 17:33N 37°16' E 003°07'1612.6
2015-Jul-29 16:14N 37°15' E 003°28'912.7
2015-Jul-29 15:33N 37°15' E 003°39'2511.8
2015-Jul-29 13:27N 37°15' E 004°10'1112.0
2015-Jul-29 12:31N 37°15' E 004°24'1212.1
2015-Jul-29 11:29N 37°15' E 004°39'1212.3
2015-Jul-29 10:30N 37°16' E 004°55'1512.5
2015-Jul-29 09:18N 37°16' E 005°13'2412.8
2015-Jul-29 07:24N 37°15' E 005°44'59 1.4
2015-Jul-27 13:27N 37°03' E 006°56'1 0.1
2015-Jul-27 03:33N 37°02' E 006°56'1 0.0
2015-Jul-25 17:10N 37°03' E 006°55'1 1.0
2015-Jul-25 16:29N 37°03' E 006°56'1 1.0
2015-Jul-25 15:20N 37°03' E 006°58'1 1.0
2015-Jul-25 14:33N 37°03' E 006°59'5 0.6
2015-Jul-25 06:07N 37°08' E 007°01'0 0.6
2015-Jul-25 05:27N 37°08' E 007°01'16 0.8
2015-Jul-24 08:11N 37°06' E 006°41'43 0.9
2015-Jul-22 09:27N 37°43' E 006°11'3 0.8
2015-Jul-22 06:12N 37°42' E 006°14'1 0.3
2015-Jul-22 04:30N 37°42' E 006°15'3 0.6
2015-Jul-21 23:27N 37°39' E 006°15'10 1.1
2015-Jul-21 14:18N 37°35' E 006°26'9 9.0
2015-Jul-21 13:19N 37°37' E 006°15'13 6.9
2015-Jul-21 11:29N 37°40' E 005°60'7 0.8
2015-Jul-21 02:32N 37°36' E 006°08'  
Track history (hours):
 
Tides and Currents Weather Stations Pressure Air Temp Water Temp Dewpoint Dewpoint Depression Visibility Wind Speed Wind Dir Waves Ship Positions

Nina

Last reported at 2015-Jul-30 05:33 UTC. Time now 2015-Jul-30 18:15 UTC.
Position N 36°48' E 000°01'.

Length 180 m; draft 9.9 m.

Type: Tanker. MMSI: 247239700.

Date/timePositionNaut miles runAvg speedWind from/ knotsBaromVisibWave heightAir tempDewpointWater temp
2015-Jul-30 05:33N 36°48' E 000°01'1312.5
2015-Jul-30 04:31N 36°50' E 000°17'1212.6
2015-Jul-30 03:33N 36°53' E 000°32'1212.0
2015-Jul-30 02:33N 36°56' E 000°46'1212.0
2015-Jul-30 01:31N 36°58' E 001°02'1111.6
2015-Jul-30 00:33N 37°01' E 001°15'1312.9
2015-Jul-29 23:33N 37°02' E 001°31'1812.8
2015-Jul-29 22:07N 37°05' E 001°54'713.2
2015-Jul-29 21:33N 37°07' E 002°03'1312.9
2015-Jul-29 20:33N 37°09' E 002°19'1312.9
2015-Jul-29 19:33N 37°12' E 002°35'1313.0
2015-Jul-29 18:33N 37°15' E 002°51'1312.6
2015-Jul-29 17:33N 37°16' E 003°07'1612.6
2015-Jul-29 16:14N 37°15' E 003°28'912.7
2015-Jul-29 15:33N 37°15' E 003°39'2511.8
2015-Jul-29 13:27N 37°15' E 004°10'1112.0
2015-Jul-29 12:31N 37°15' E 004°24'1212.1
2015-Jul-29 11:29N 37°15' E 004°39'1212.3
2015-Jul-29 10:30N 37°16' E 004°55'1512.5
2015-Jul-29 09:18N 37°16' E 005°13'2412.8
2015-Jul-29 07:24N 37°15' E 005°44'59 1.4
2015-Jul-27 13:27N 37°03' E 006°56'1 0.1
2015-Jul-27 03:33N 37°02' E 006°56'1 0.0
2015-Jul-25 17:10N 37°03' E 006°55'1 1.0
2015-Jul-25 16:29N 37°03' E 006°56'1 1.0
2015-Jul-25 15:20N 37°03' E 006°58'1 1.0
2015-Jul-25 14:33N 37°03' E 006°59'5 0.6
2015-Jul-25 06:07N 37°08' E 007°01'0 0.6
2015-Jul-25 05:27N 37°08' E 007°01'16 0.8
2015-Jul-24 08:11N 37°06' E 006°41'43 0.9
2015-Jul-22 09:27N 37°43' E 006°11'3 0.8
2015-Jul-22 06:12N 37°42' E 006°14'1 0.3
2015-Jul-22 04:30N 37°42' E 006°15'3 0.6
2015-Jul-21 23:27N 37°39' E 006°15'10 1.1
2015-Jul-21 14:18N 37°35' E 006°26'9 9.0
2015-Jul-21 13:19N 37°37' E 006°15'13 6.9
2015-Jul-21 11:29N 37°40' E 005°60'7 0.8
2015-Jul-21 02:32N 37°36' E 006°08'  

Dump ship's entire track history